Latest Weather Observations for McCluer Island

IDD60801

Issued at 11:31 pm CST Friday 24 March 2017 (issued every 30 minutes, with the page automatically refreshed every 10 minutes)

About weather observations | Map of weather stations | Latest weather observations for NT | Other Formats
Station Details ID: 014274 Name: MCCLUER ISLAND Lat: -11.05 Lon: 132.98 Height: 1.4 m
Data from the previous 72 hours. | See also: Recent months at McCluer Island
Date/Time
CST
Temp
°C
App
Temp
°C
Dew
Point
°C
Rel
Hum
%
Delta-T
°C
Wind Press
QNH
hPa
Press
MSL
hPa
Rain since
9am
mm
Dir  Spd
km/h
Gust
km/h
Spd
kts
Gust
kts
24/11:30pm 28.9 31.5 24.9 79 2.8 NNW 20 24 11 13 1008.8 - 0.6
24/11:00pm 29.0 31.4 25.2 80 2.7 NNW 22 26 12 14 1009.2 - 0.6
24/10:30pm 28.8 31.3 24.8 79 2.8 NNW 20 24 11 13 1009.1 - 0.6
24/10:00pm 28.7 31.6 25.1 81 2.5 NNW 19 22 10 12 1008.6 - 0.6
24/09:30pm 29.0 32.2 25.6 82 2.4 N 19 22 10 12 1007.9 - 0.6
24/09:00pm 28.9 32.1 25.5 82 2.4 N 19 20 10 11 1007.4 1007.4 0.6
24/08:30pm 28.8 31.9 25.4 82 2.4 NNW 19 22 10 12 1007.1 - 0.6
24/08:00pm 29.1 31.2 25.3 80 2.7 N 24 28 13 15 1006.8 - 0.6
24/07:30pm 29.2 31.9 25.6 81 2.5 N 22 28 12 15 1006.9 - 0.6
24/07:00pm 29.1 31.4 25.7 82 2.4 N 24 28 13 15 1006.5 - 0.6
24/06:30pm 29.3 32.7 25.9 82 2.4 N 19 22 10 12 1006.2 - 0.6
24/06:00pm 29.1 32.1 25.5 81 2.5 N 20 24 11 13 1006.1 1006.1 0.6
24/05:30pm 29.7 32.0 25.0 76 3.3 N 22 26 12 14 1005.8 - 0.6
24/05:00pm 29.7 32.5 25.2 77 3.2 N 20 24 11 13 1005.8 - 0.6
24/04:30pm 29.7 32.8 25.4 78 3.0 N 19 22 10 12 1006.1 - 0.6
24/04:00pm 29.9 32.8 25.9 79 2.8 N 22 26 12 14 1006.3 - 0.6
24/03:30pm 29.6 33.3 25.8 80 2.7 N 17 19 9 10 1006.5 - 0.6
24/03:00pm 28.4 28.8 25.0 82 2.4 NNW 32 39 17 21 1006.7 1006.7 0.6
24/02:30pm 29.8 31.8 25.1 76 3.3 N 24 28 13 15 1006.8 - 0.6
24/02:00pm 29.6 31.3 24.7 75 3.4 N 24 28 13 15 1007.1 - 0.6
24/01:30pm 29.8 32.1 26.2 81 2.6 N 26 30 14 16 1007.5 - 0.6
24/01:00pm 29.5 30.6 25.5 79 2.8 N 30 35 16 19 1007.8 - 0.6
24/12:30pm 29.8 31.3 25.5 78 3.0 N 28 32 15 17 1008.3 - 0.4
24/12:00pm 30.2 33.1 25.9 78 3.1 N 22 26 12 14 1008.8 1008.8 0.4
24/11:30am 29.7 32.4 25.7 79 2.8 N 22 26 12 14 1009.3 - 0.4
24/11:00am 29.7 32.4 25.7 79 2.8 N 22 32 12 17 1009.8 - 0.0
24/10:30am 29.7 32.5 25.2 77 3.2 N 20 24 11 13 1009.9 - 0.0
24/10:00am 29.7 31.2 25.0 76 3.3 N 26 30 14 16 1009.7 - 0.0
24/09:30am 29.4 31.2 25.4 79 2.8 N 26 30 14 16 1009.6 - 0.0
24/09:00am 29.0 30.9 25.0 79 2.8 NNE 24 28 13 15 1009.4 1009.4 3.0
24/08:30am 29.0 31.7 25.6 82 2.4 NNE 22 26 12 14 1009.3 - 3.0
24/08:00am 28.9 31.6 24.7 78 2.9 NNE 19 20 10 11 1008.9 - 3.0
24/07:30am 28.9 32.1 24.9 79 2.8 N 17 22 9 12 1008.7 - 3.0
24/07:00am 28.5 31.9 24.7 80 2.7 N 15 19 8 10 1008.6 - 3.0
24/06:30am 28.3 32.2 24.3 79 2.8 N 11 13 6 7 1008.5 - 3.0
24/06:00am 28.3 31.1 24.3 79 2.8 N 17 19 9 10 1008.3 1008.3 3.0
24/05:30am 28.3 32.1 24.7 81 2.5 N 13 17 7 9 1007.9 - 3.0
24/05:00am 28.3 32.5 24.7 81 2.5 N 11 17 6 9 1007.7 - 3.0
24/04:30am 28.1 31.7 24.3 80 2.6 NW 13 15 7 8 1007.7 - 3.0
24/04:00am 28.1 31.7 24.3 80 2.6 NW 13 17 7 9 1007.3 - 3.0
24/03:30am 28.3 30.8 24.5 80 2.6 NW 19 20 10 11 1007.4 - 3.0
24/03:00am 28.3 30.7 24.3 79 2.8 NW 19 20 10 11 1007.5 1007.5 3.0
24/02:30am 28.4 30.8 24.2 78 2.9 NW 19 22 10 12 1007.7 - 3.0
24/02:00am 28.5 31.0 24.5 79 2.8 NW 19 20 10 11 1008.0 - 3.0
24/01:30am 28.4 31.4 24.6 80 2.6 NW 17 20 9 11 1008.4 - 3.0
24/01:00am 28.2 30.7 24.8 82 2.4 WNW 20 24 11 13 1008.9 - 3.0
24/12:30am 28.8 31.8 25.2 81 2.5 NNW 19 22 10 12 1009.3 - 3.0
24/12:00am 28.6 31.2 24.6 79 2.8 NNW 19 20 10 11 1009.5 1009.5 3.0
 
Date/Time
CST
Temp
°C
App
Temp
°C
Dew
Point
°C
Rel
Hum
%
Delta-T
°C
Wind Press
QNH
hPa
Press
MSL
hPa
Rain since
9am
mm
Dir  Spd
km/h
Gust
km/h
Spd
kts
Gust
kts
23/11:30pm 28.5 31.0 24.5 79 2.8 NNW 19 20 10 11 1009.8 - 3.0
23/11:00pm 28.5 31.2 24.1 77 3.0 NW 17 20 9 11 1009.8 - 3.0
23/10:30pm 28.7 30.5 24.3 77 3.1 NW 22 24 12 13 1010.1 - 3.0
23/10:00pm 28.7 30.7 24.0 76 3.3 NW 20 24 11 13 1010.1 - 3.0
23/09:30pm 28.6 31.0 24.6 79 2.8 NW 20 24 11 13 1010.0 - 3.0
23/09:00pm 27.9 30.3 24.3 81 2.5 NW 19 26 10 14 1009.3 1009.3 3.0
23/08:30pm 28.6 31.0 24.2 77 3.1 NW 19 20 10 11 1009.0 - 3.0
23/08:00pm 28.5 31.3 24.3 78 2.9 NW 17 22 9 12 1008.6 - 3.0
23/07:30pm 28.3 31.5 24.3 79 2.8 NNW 15 20 8 11 1008.0 - 3.0
23/07:00pm 28.4 31.1 24.2 78 2.9 NW 17 20 9 11 1007.9 - 3.0
23/06:30pm 28.6 31.1 24.4 78 2.9 NW 19 22 10 12 1007.5 - 3.0
23/06:00pm 29.1 31.7 24.6 76 3.1 NW 19 24 10 13 1007.1 1007.1 3.0
23/05:30pm 29.3 31.8 24.4 75 3.4 NW 19 22 10 12 1006.6 - 3.0
23/05:00pm 29.8 33.0 24.9 75 3.4 NW 17 20 9 11 1006.5 - 3.0
23/04:30pm 29.6 32.6 24.7 75 3.4 NW 17 20 9 11 1006.5 - 3.0
23/04:00pm 30.2 33.4 25.0 73 3.7 NW 17 20 9 11 1006.8 - 3.0
23/03:30pm 30.0 33.7 25.1 75 3.4 NW 15 19 8 10 1007.2 - 3.0
23/03:00pm 30.1 34.0 24.9 73 3.7 NW 13 15 7 8 1007.3 1007.3 3.0
23/02:30pm 30.1 33.9 24.7 73 3.8 WNW 13 17 7 9 1007.8 - 3.0
23/02:00pm 30.0 33.2 23.7 69 4.4 WNW 13 15 7 8 1008.4 - 3.0
23/01:30pm 29.9 34.2 24.3 72 3.9 WNW 9 11 5 6 1008.6 - 3.0
23/01:00pm 29.7 34.0 24.3 73 3.8 W 9 11 5 6 1009.0 - 3.0
23/12:30pm 29.3 34.1 25.1 78 2.9 W 9 15 5 8 1009.8 - 3.0
23/12:00pm 27.9 32.2 24.9 84 2.1 W 11 15 6 8 1010.3 1010.3 3.0
23/11:30am 26.9 31.0 24.0 84 2.0 WSW 9 13 5 7 1010.4 - 3.0
23/11:00am 25.7 28.9 23.7 89 1.4 WSW 13 26 7 14 1010.8 - 3.0
23/10:30am 29.9 32.7 25.0 75 3.4 WSW 19 30 10 16 1010.7 - 0.2
23/10:00am 28.5 31.2 24.1 77 3.0 W 17 22 9 12 1010.9 - 0.0
23/09:30am 29.2 33.8 24.7 77 3.1 WNW 9 13 5 7 1010.7 - 0.0
23/09:00am 27.7 29.5 23.3 77 3.0 NNE 19 24 10 13 1010.3 1010.3 24.0
23/08:30am 28.7 34.0 24.9 80 2.7 WNW 6 9 3 5 1010.2 - 24.0
23/08:00am 28.6 33.4 24.2 77 3.1 E 6 15 3 8 1009.9 - 24.0
23/07:30am 28.4 33.3 24.4 79 2.8 NE 6 13 3 7 1009.5 - 24.0
23/07:00am 28.2 33.3 24.6 81 2.5 ENE 6 11 3 6 1009.0 - 24.0
23/06:30am 28.2 32.6 25.0 83 2.2 WNW 11 15 6 8 1008.7 - 24.0
23/06:00am 27.9 32.1 24.7 83 2.2 WNW 11 17 6 9 1008.3 1008.3 24.0
23/05:30am 28.1 31.6 24.9 83 2.2 WNW 15 19 8 10 1008.0 - 24.0
23/05:00am 28.1 31.6 24.9 83 2.2 WNW 15 19 8 10 1008.0 - 24.0
23/04:30am 27.9 31.3 24.7 83 2.2 WNW 15 19 8 10 1008.0 - 24.0
23/04:00am 28.1 31.1 24.7 82 2.4 WNW 17 20 9 11 1008.0 - 24.0
23/03:30am 27.8 30.8 24.0 80 2.6 WNW 15 20 8 11 1008.0 - 24.0
23/03:00am 27.6 31.6 24.4 83 2.2 WNW 11 17 6 9 1008.1 1008.1 24.0
23/02:30am 27.9 32.2 24.9 84 2.1 W 11 15 6 8 1008.4 - 24.0
23/02:00am 27.8 31.9 24.6 83 2.2 W 11 15 6 8 1008.9 - 24.0
23/01:30am 27.8 32.2 25.0 85 2.0 WSW 11 13 6 7 1009.2 - 24.0
23/01:00am 27.8 32.0 24.8 84 2.1 W 11 15 6 8 1009.6 - 24.0
23/12:30am 27.8 31.5 24.6 83 2.2 W 13 17 7 9 1010.2 - 24.0
23/12:00am 27.3 30.4 24.2 83 2.1 W 15 19 8 10 1010.4 1010.4 24.0
 
Date/Time
CST
Temp
°C
App
Temp
°C
Dew
Point
°C
Rel
Hum
%
Delta-T
°C
Wind Press
QNH
hPa
Press
MSL
hPa
Rain since
9am
mm
Dir  Spd
km/h
Gust
km/h
Spd
kts
Gust
kts
22/11:30pm 26.0 32.0 24.8 93 0.8 SSE 2 13 1 7 1010.4 - 24.0
22/11:00pm 26.2 30.7 25.2 94 0.7 SSE 11 13 6 7 1010.4 - 24.0
22/10:30pm 26.9 32.8 25.3 91 1.1 W 4 11 2 6 1010.3 - 23.0
22/10:00pm 26.2 30.4 23.5 85 1.8 SSW 7 11 4 6 1009.9 - 16.8
22/09:30pm 26.3 29.0 24.2 88 1.4 WNW 17 20 9 11 1009.7 - 16.8
22/09:00pm 26.5 28.2 24.7 90 1.3 WNW 24 35 13 19 1009.4 1009.4 16.4
22/08:30pm 26.2 30.3 24.6 91 1.1 W 11 13 6 7 1009.0 - 16.4
22/08:00pm 24.9 27.0 23.1 90 1.2 NW 17 24 9 13 1009.0 - 16.2
22/07:30pm 25.5 25.7 24.1 92 1.0 WNW 30 37 16 20 1008.7 - 14.4
22/07:00pm 28.2 31.3 25.4 85 2.0 NW 19 24 10 13 1008.0 - 0.6
22/06:30pm 28.4 31.3 24.4 79 2.8 W 17 20 9 11 1007.5 - 0.6
22/06:00pm 28.8 31.5 24.8 79 2.8 WNW 19 20 10 11 1007.1 1007.1 0.6
22/05:30pm 29.5 32.0 24.8 76 3.3 WNW 20 24 11 13 1006.9 - 0.6
22/05:00pm 29.6 32.3 24.7 75 3.4 W 19 20 10 11 1007.0 - 0.6
22/04:30pm 28.5 31.6 23.6 75 3.4 W 13 19 7 10 1007.1 - 0.6
22/04:00pm 28.9 31.3 23.6 73 3.6 W 17 24 9 13 1007.3 - 0.6
22/03:30pm 29.0 31.2 24.8 78 2.9 W 22 30 12 16 1007.3 - 0.6
22/03:00pm 29.4 32.0 24.9 77 3.2 WNW 20 26 11 14 1007.4 1007.4 0.6
22/02:30pm 29.8 32.0 24.9 75 3.4 WNW 22 28 12 15 1007.8 - 0.6
22/02:00pm 29.9 32.6 25.6 78 3.0 NW 22 28 12 15 1008.2 - 0.6
22/01:30pm 29.9 32.0 25.4 77 3.2 WNW 24 28 13 15 1008.6 - 0.6
22/01:00pm 29.3 32.3 25.3 79 2.8 NW 19 24 10 13 1009.0 - 0.6
22/12:30pm 28.8 31.9 24.8 79 2.8 NW 17 20 9 11 1009.6 - 0.6
22/12:00pm 28.5 30.6 24.7 80 2.7 NW 22 24 12 13 1010.1 1010.1 0.6
22/11:30am 28.5 31.9 24.1 77 3.0 NW 13 17 7 9 1010.6 - 0.6
22/11:00am 27.4 30.2 23.6 80 2.6 WNW 15 20 8 11 1010.6 - 0.6
22/10:30am 26.9 29.5 24.0 84 2.0 W 17 20 9 11 1010.6 - 0.6
22/10:00am 25.9 27.0 23.6 87 1.6 WNW 24 30 13 16 1011.0 - 0.6
22/09:30am 27.0 29.3 25.6 92 1.0 N 24 30 13 16 1011.1 - 0.0
22/09:00am 26.2 25.1 24.1 88 1.4 NNW 37 43 20 23 1011.0 1011.0 3.6
22/08:41am 27.1 27.0 24.6 86 1.7 NNW 33 39 18 21 1010.7 - 3.6
22/08:30am 28.1 32.8 25.5 86 1.8 N 11 15 6 8 1010.6 - 3.6
22/08:00am 27.5 31.8 24.9 86 1.8 N 11 15 6 8 1010.2 - 3.6
22/07:30am 27.1 31.4 24.9 88 1.5 WNW 11 15 6 8 1009.6 - 3.6
22/07:00am 26.7 31.8 24.7 89 1.4 ENE 6 9 3 5 1009.4 - 3.6
22/06:30am 26.3 31.8 24.7 91 1.1 W 4 7 2 4 1008.8 - 3.6
22/06:00am 26.0 32.1 24.4 91 1.1 CALM 0 0 0 0 1008.6 1008.6 3.4
22/05:30am 26.0 32.1 24.4 91 1.1 CALM 0 6 0 3 1008.5 - 3.4
22/05:00am 25.5 31.3 23.9 91 1.1 CALM 0 0 0 0 1008.4 - 3.4
22/04:30am 25.7 30.7 23.9 90 1.2 SW 4 9 2 5 1008.2 - 3.4
22/04:00am 25.2 29.4 23.1 88 1.4 SW 6 7 3 4 1008.4 - 3.2
22/03:30am 25.3 27.7 23.0 87 1.6 W 15 20 8 11 1008.7 - 2.0
22/03:00am 26.6 26.4 24.3 87 1.6 W 33 44 18 24 1008.9 1008.9 1.2
22/02:46am 27.6 28.2 24.2 82 2.4 W 28 41 15 22 1008.7 - 1.2
22/02:30am 28.4 32.9 24.6 80 2.6 NNW 9 13 5 7 1008.5 - 1.2
22/02:00am 28.6 32.8 24.8 80 2.7 NNW 11 15 6 8 1008.8 - 1.2
22/01:30am 28.6 33.1 24.6 79 2.8 WNW 9 13 5 7 1009.1 - 1.2
22/01:00am 28.6 32.2 24.4 78 2.9 WNW 13 15 7 8 1009.5 - 1.2
22/12:30am 28.5 32.6 24.5 79 2.8 WNW 11 13 6 7 1009.8 - 1.2
22/12:00am 28.3 33.4 24.9 82 2.4 W 7 13 4 7 1009.9 1009.9 1.2

Other Formats:

Comma delimited format used in spreadsheet applications
http://www.bom.gov.au/fwo/IDD60801/IDD60801.94135.axf

JavaScript Object Notation format (JSON) in row-major order
http://www.bom.gov.au/fwo/IDD60801/IDD60801.94135.json